Cmt Otter — WDI8641 — position and weather

sailwx.info

Track history (hours):
 
Tides and Currents Weather Stations Pressure Air Temp Water Temp Dewpoint Dewpoint Depression Visibility Wind Speed Wind Dir Waves Ship Positions

Cmt Otter

Owner: Coeymans Marine Towing, Coeymans, NY. More information available from US FCC via Universal Licensing System and Coast Guard Vessel Documentation Center.

Last reported at 2017-Dec-14 09:59 UTC. Time now 2017-Dec-16 03:40 UTC.
Position N 40°57' W 073°54'.

Length 20 m; draft 3 m.

Type: Towing. MMSI: 367740640.

Date/timePositionNaut miles runAvg speedWind from/ knotsBaromVisibWave heightAir tempDewpointWater temp
2017-Dec-14 09:59N 40°57' W 073°54'3 6.5
2017-Dec-14 09:29N 40°54' W 073°55'3 6.3
2017-Dec-14 08:59N 40°51' W 073°57'3 6.0
2017-Dec-14 08:30N 40°49' W 073°59'3 5.7
2017-Dec-14 08:00N 40°46' W 074°00'2 5.0
2017-Dec-14 07:30N 40°44' W 074°01'2 4.4
2017-Dec-14 07:00N 40°42' W 074°02'2 3.6
2017-Dec-14 06:30N 40°40' W 074°03'1 1.3
2017-Dec-14 06:00N 40°40' W 074°02'1 2.2
2017-Dec-14 05:30N 40°40' W 074°01'1 1.4
2017-Dec-14 05:00N 40°40' W 074°00'1 2.1
2017-Dec-14 04:30N 40°40' W 074°01'1 2.9
2017-Dec-14 04:00N 40°40' W 074°03'1 2.7
2017-Dec-14 03:30N 40°41' W 074°02'3 6.9
2017-Dec-14 03:00N 40°43' W 073°58'2 3.5
2017-Dec-14 02:30N 40°44' W 073°57'0 0.1
2017-Dec-14 02:00N 40°44' W 073°57'3 5.2
2017-Dec-14 01:30N 40°42' W 073°59'3 6.0
2017-Dec-14 01:00N 40°40' W 074°01'1 1.3
2017-Dec-14 00:30N 40°40' W 074°00'0 0.0
2017-Dec-14 00:00N 40°40' W 074°00'0 0.0
2017-Dec-13 23:30N 40°40' W 074°00'0 0.0
2017-Dec-13 23:00N 40°40' W 074°00'0 0.0
2017-Dec-13 22:30N 40°40' W 074°00'0 0.0
2017-Dec-13 22:00N 40°40' W 074°00'0 0.0
2017-Dec-13 21:30N 40°40' W 074°00'0 0.0
2017-Dec-13 21:00N 40°40' W 074°00'0 0.0
2017-Dec-13 20:30N 40°40' W 074°00'0 0.9
2017-Dec-13 20:00N 40°40' W 074°01'0 0.0
2017-Dec-13 19:30N 40°40' W 074°01'0 0.0
2017-Dec-13 19:00N 40°40' W 074°01'0 0.0
2017-Dec-13 18:30N 40°40' W 074°01'0 0.9
2017-Dec-13 18:00N 40°40' W 074°01'0 0.9
2017-Dec-13 17:30N 40°40' W 074°01'0 0.0
2017-Dec-13 17:00N 40°40' W 074°01'0 0.0
2017-Dec-13 16:30N 40°40' W 074°01'0 0.0
2017-Dec-13 16:00N 40°40' W 074°01'0 0.0
2017-Dec-13 15:30N 40°40' W 074°01'0 0.0
2017-Dec-13 15:00N 40°40' W 074°01'0 0.0
2017-Dec-13 14:30N 40°40' W 074°01'0 0.0
2017-Dec-13 14:00N 40°40' W 074°01'0 0.0
2017-Dec-13 13:30N 40°40' W 074°01'0 0.0
2017-Dec-13 13:00N 40°40' W 074°01'0 0.0
2017-Dec-13 12:30N 40°40' W 074°01'0 0.0
2017-Dec-13 12:00N 40°40' W 074°01'0 0.0
2017-Dec-13 11:30N 40°40' W 074°01'0 0.0
2017-Dec-13 11:00N 40°40' W 074°01'0 0.0
2017-Dec-13 10:30N 40°40' W 074°01'0 0.0
2017-Dec-13 10:00N 40°40' W 074°01'0 0.0
2017-Dec-13 09:30N 40°40' W 074°01'0 0.0
2017-Dec-13 09:00N 40°40' W 074°01'0 0.0
2017-Dec-13 08:30N 40°40' W 074°01'0 0.0
2017-Dec-13 08:00N 40°40' W 074°01'0 0.0
2017-Dec-13 07:30N 40°40' W 074°01'0 0.0
2017-Dec-13 07:00N 40°40' W 074°01'0 0.0
2017-Dec-13 06:30N 40°40' W 074°01'0 0.0
2017-Dec-13 06:00N 40°40' W 074°01'0 0.0
2017-Dec-13 05:30N 40°40' W 074°01'0 0.0
2017-Dec-13 05:00N 40°40' W 074°01'0 0.0
2017-Dec-13 04:30N 40°40' W 074°01'0 0.0
2017-Dec-13 04:00N 40°40' W 074°01'0 0.0
2017-Dec-13 03:30N 40°40' W 074°01'0 0.0
2017-Dec-13 03:00N 40°40' W 074°01'0 0.0
2017-Dec-13 02:30N 40°40' W 074°01'0 0.0
2017-Dec-13 02:00N 40°40' W 074°01'0 0.0
2017-Dec-13 01:30N 40°40' W 074°01'0 0.1
2017-Dec-13 01:00N 40°40' W 074°01'0 0.1
2017-Dec-13 00:30N 40°40' W 074°01'0 0.0
2017-Dec-13 00:00N 40°40' W 074°01'0 0.0
2017-Dec-12 23:30N 40°40' W 074°01'2 3.8
2017-Dec-12 23:00N 40°40' W 074°03'2 3.6
2017-Dec-12 22:30N 40°41' W 074°02'3 5.1
2017-Dec-12 22:00N 40°43' W 073°59'2 4.3
2017-Dec-12 21:30N 40°44' W 073°57'0 0.7
2017-Dec-12 20:59N 40°44' W 073°57'0 0.1
2017-Dec-12 20:30N 40°44' W 073°57'0 0.0
2017-Dec-12 20:00N 40°44' W 073°57'2 3.5
2017-Dec-12 19:30N 40°43' W 073°58'4 8.1
2017-Dec-12 19:00N 40°40' W 074°02'1 2.5
2017-Dec-12 18:30N 40°40' W 074°03'2 3.1
2017-Dec-12 18:00N 40°41' W 074°02'3 6.6
2017-Dec-12 17:30N 40°45' W 074°01'3 6.8
2017-Dec-12 17:00N 40°48' W 073°59'4 7.1
2017-Dec-12 16:29N 40°51' W 073°57'4 7.2
2017-Dec-12 16:00N 40°54' W 073°55'  
2017-Dec-09 05:36N 40°57' W 073°54'1 5.7
2017-Dec-09 05:22N 40°56' W 073°55'2 5.3
2017-Dec-09 04:59N 40°54' W 073°56'2 5.1
2017-Dec-09 04:30N 40°52' W 073°57'3 5.1
2017-Dec-09 04:00N 40°49' W 073°58'2 4.8
2017-Dec-09 03:30N 40°47' W 073°60'2 4.3
2017-Dec-09 03:00N 40°45' W 074°01'2 3.7
2017-Dec-09 02:30N 40°43' W 074°01'2 3.2
2017-Dec-09 02:00N 40°42' W 074°02'2 3.1
2017-Dec-09 01:30N 40°40' W 074°03'1 1.1
2017-Dec-09 01:00N 40°40' W 074°03'0 0.0
2017-Dec-09 00:30N 40°40' W 074°03'0 0.0
2017-Dec-09 00:00N 40°40' W 074°03'0 0.0
2017-Dec-08 23:30N 40°40' W 074°03'0 0.0
2017-Dec-08 23:00N 40°40' W 074°03'0 0.0
2017-Dec-08 22:30N 40°40' W 074°03'0 0.2
2017-Dec-08 22:00N 40°40' W 074°03'2 4.4
2017-Dec-08 21:30N 40°42' W 074°01'3 6.6
2017-Dec-08 21:00N 40°44' W 073°58'1 2.1
2017-Dec-08 20:30N 40°44' W 073°57'0 0.1
2017-Dec-08 20:00N 40°44' W 073°57'0 0.0
2017-Dec-08 19:30N 40°44' W 073°57'0 0.0
2017-Dec-08 19:00N 40°44' W 073°57'0 0.0
2017-Dec-08 18:30N 40°44' W 073°57'0 0.0
2017-Dec-08 17:59N 40°44' W 073°57'0 0.1
2017-Dec-08 17:30N 40°44' W 073°57'2 5.0
2017-Dec-08 17:00N 40°42' W 073°59'3 5.5
2017-Dec-08 16:30N 40°40' W 074°01'0 0.3
2017-Dec-08 16:00N 40°40' W 074°01'0 0.0
2017-Dec-08 15:30N 40°40' W 074°01'0 0.0
2017-Dec-08 15:00N 40°40' W 074°01'0 0.0
2017-Dec-08 14:31N 40°40' W 074°01'0 0.0
2017-Dec-08 14:00N 40°40' W 074°01'0 0.0
2017-Dec-08 13:31N 40°40' W 074°01'4 0.4
2017-Dec-08 03:25N 40°39' W 074°05'2 5.6
2017-Dec-08 03:00N 40°39' W 074°08'3 5.8
2017-Dec-08 02:30N 40°38' W 074°12'0 0.5
2017-Dec-08 02:00N 40°38' W 074°12'1 2.6
2017-Dec-08 01:30N 40°39' W 074°11'4 8.1
2017-Dec-08 00:59N 40°39' W 074°05'2 4.2
2017-Dec-08 00:30N 40°40' W 074°03'3 5.9
2017-Dec-08 00:00N 40°42' W 074°00'3 6.2
2017-Dec-07 23:29N 40°44' W 073°57'1 1.4
2017-Dec-07 23:00N 40°44' W 073°57'0 0.2
2017-Dec-07 22:30N 40°44' W 073°57'1 1.9
2017-Dec-07 22:00N 40°44' W 073°58'2 4.1
2017-Dec-07 21:30N 40°42' W 073°60'3 5.2
2017-Dec-07 21:00N 40°40' W 074°01'0 0.8
2017-Dec-07 20:31N 40°40' W 074°01'0 0.5
2017-Dec-07 20:00N 40°40' W 074°01'0 0.0
2017-Dec-07 19:30N 40°40' W 074°01'0 0.0
2017-Dec-07 19:01N 40°40' W 074°01'0 0.0
2017-Dec-07 18:30N 40°40' W 074°01'2 3.9
2017-Dec-07 18:00N 40°40' W 074°03'3 5.2
2017-Dec-07 17:29N 40°39' W 074°07'0 0.0
2017-Dec-07 17:00N 40°39' W 074°07'1 1.0
2017-Dec-07 16:30N 40°39' W 074°06'3 7.1
2017-Dec-07 16:01N 40°41' W 074°02'3 6.2
2017-Dec-07 15:31N 40°42' W 073°59'2 4.6
2017-Dec-07 15:00N 40°44' W 073°57'0 0.0
2017-Dec-07 14:29N 40°44' W 073°57'0 0.0
2017-Dec-07 14:00N 40°44' W 073°57'0 0.0
2017-Dec-07 13:30N 40°44' W 073°57'0 0.0
2017-Dec-07 13:00N 40°44' W 073°57'0 0.0
2017-Dec-07 12:30N 40°44' W 073°57'0 0.0
2017-Dec-07 12:00N 40°44' W 073°57'1 1.3
2017-Dec-07 11:30N 40°44' W 073°58'3 6.7
2017-Dec-07 11:01N 40°42' W 074°00'2 3.8
2017-Dec-07 10:31N 40°40' W 074°00'0 0.0
2017-Dec-07 10:01N 40°40' W 074°00'0 0.0
2017-Dec-07 09:30N 40°40' W 074°00'1 1.5
2017-Dec-07 09:00N 40°40' W 074°01'3 6.0
2017-Dec-07 08:30N 40°43' W 074°01'4 7.0
2017-Dec-07 08:00N 40°46' W 074°00'3 6.5
2017-Dec-07 07:30N 40°49' W 073°58'3 5.6
2017-Dec-07 07:00N 40°52' W 073°57'3 5.1
2017-Dec-07 06:30N 40°54' W 073°55'  
Track history (hours):
 
Tides and Currents Weather Stations Pressure Air Temp Water Temp Dewpoint Dewpoint Depression Visibility Wind Speed Wind Dir Waves Ship Positions

Cmt Otter

Owner: Coeymans Marine Towing, Coeymans, NY. More information available from US FCC via Universal Licensing System and Coast Guard Vessel Documentation Center.

Last reported at 2017-Dec-14 09:59 UTC. Time now 2017-Dec-16 03:40 UTC.
Position N 40°57' W 073°54'.

Length 20 m; draft 3 m.

Type: Towing. MMSI: 367740640.

Date/timePositionNaut miles runAvg speedWind from/ knotsBaromVisibWave heightAir tempDewpointWater temp
2017-Dec-14 09:59N 40°57' W 073°54'3 6.5
2017-Dec-14 09:29N 40°54' W 073°55'3 6.3
2017-Dec-14 08:59N 40°51' W 073°57'3 6.0
2017-Dec-14 08:30N 40°49' W 073°59'3 5.7
2017-Dec-14 08:00N 40°46' W 074°00'2 5.0
2017-Dec-14 07:30N 40°44' W 074°01'2 4.4
2017-Dec-14 07:00N 40°42' W 074°02'2 3.6
2017-Dec-14 06:30N 40°40' W 074°03'1 1.3
2017-Dec-14 06:00N 40°40' W 074°02'1 2.2
2017-Dec-14 05:30N 40°40' W 074°01'1 1.4
2017-Dec-14 05:00N 40°40' W 074°00'1 2.1
2017-Dec-14 04:30N 40°40' W 074°01'1 2.9
2017-Dec-14 04:00N 40°40' W 074°03'1 2.7
2017-Dec-14 03:30N 40°41' W 074°02'3 6.9
2017-Dec-14 03:00N 40°43' W 073°58'2 3.5
2017-Dec-14 02:30N 40°44' W 073°57'0 0.1
2017-Dec-14 02:00N 40°44' W 073°57'3 5.2
2017-Dec-14 01:30N 40°42' W 073°59'3 6.0
2017-Dec-14 01:00N 40°40' W 074°01'1 1.3
2017-Dec-14 00:30N 40°40' W 074°00'0 0.0
2017-Dec-14 00:00N 40°40' W 074°00'0 0.0
2017-Dec-13 23:30N 40°40' W 074°00'0 0.0
2017-Dec-13 23:00N 40°40' W 074°00'0 0.0
2017-Dec-13 22:30N 40°40' W 074°00'0 0.0
2017-Dec-13 22:00N 40°40' W 074°00'0 0.0
2017-Dec-13 21:30N 40°40' W 074°00'0 0.0
2017-Dec-13 21:00N 40°40' W 074°00'0 0.0
2017-Dec-13 20:30N 40°40' W 074°00'0 0.9
2017-Dec-13 20:00N 40°40' W 074°01'0 0.0
2017-Dec-13 19:30N 40°40' W 074°01'0 0.0
2017-Dec-13 19:00N 40°40' W 074°01'0 0.0
2017-Dec-13 18:30N 40°40' W 074°01'0 0.9
2017-Dec-13 18:00N 40°40' W 074°01'0 0.9
2017-Dec-13 17:30N 40°40' W 074°01'0 0.0
2017-Dec-13 17:00N 40°40' W 074°01'0 0.0
2017-Dec-13 16:30N 40°40' W 074°01'0 0.0
2017-Dec-13 16:00N 40°40' W 074°01'0 0.0
2017-Dec-13 15:30N 40°40' W 074°01'0 0.0
2017-Dec-13 15:00N 40°40' W 074°01'0 0.0
2017-Dec-13 14:30N 40°40' W 074°01'0 0.0
2017-Dec-13 14:00N 40°40' W 074°01'0 0.0
2017-Dec-13 13:30N 40°40' W 074°01'0 0.0
2017-Dec-13 13:00N 40°40' W 074°01'0 0.0
2017-Dec-13 12:30N 40°40' W 074°01'0 0.0
2017-Dec-13 12:00N 40°40' W 074°01'0 0.0
2017-Dec-13 11:30N 40°40' W 074°01'0 0.0
2017-Dec-13 11:00N 40°40' W 074°01'0 0.0
2017-Dec-13 10:30N 40°40' W 074°01'0 0.0
2017-Dec-13 10:00N 40°40' W 074°01'0 0.0
2017-Dec-13 09:30N 40°40' W 074°01'0 0.0
2017-Dec-13 09:00N 40°40' W 074°01'0 0.0
2017-Dec-13 08:30N 40°40' W 074°01'0 0.0
2017-Dec-13 08:00N 40°40' W 074°01'0 0.0
2017-Dec-13 07:30N 40°40' W 074°01'0 0.0
2017-Dec-13 07:00N 40°40' W 074°01'0 0.0
2017-Dec-13 06:30N 40°40' W 074°01'0 0.0
2017-Dec-13 06:00N 40°40' W 074°01'0 0.0
2017-Dec-13 05:30N 40°40' W 074°01'0 0.0
2017-Dec-13 05:00N 40°40' W 074°01'0 0.0
2017-Dec-13 04:30N 40°40' W 074°01'0 0.0
2017-Dec-13 04:00N 40°40' W 074°01'0 0.0
2017-Dec-13 03:30N 40°40' W 074°01'0 0.0
2017-Dec-13 03:00N 40°40' W 074°01'0 0.0
2017-Dec-13 02:30N 40°40' W 074°01'0 0.0
2017-Dec-13 02:00N 40°40' W 074°01'0 0.0
2017-Dec-13 01:30N 40°40' W 074°01'0 0.1
2017-Dec-13 01:00N 40°40' W 074°01'0 0.1
2017-Dec-13 00:30N 40°40' W 074°01'0 0.0
2017-Dec-13 00:00N 40°40' W 074°01'0 0.0
2017-Dec-12 23:30N 40°40' W 074°01'2 3.8
2017-Dec-12 23:00N 40°40' W 074°03'2 3.6
2017-Dec-12 22:30N 40°41' W 074°02'3 5.1
2017-Dec-12 22:00N 40°43' W 073°59'2 4.3
2017-Dec-12 21:30N 40°44' W 073°57'0 0.7
2017-Dec-12 20:59N 40°44' W 073°57'0 0.1
2017-Dec-12 20:30N 40°44' W 073°57'0 0.0
2017-Dec-12 20:00N 40°44' W 073°57'2 3.5
2017-Dec-12 19:30N 40°43' W 073°58'4 8.1
2017-Dec-12 19:00N 40°40' W 074°02'1 2.5
2017-Dec-12 18:30N 40°40' W 074°03'2 3.1
2017-Dec-12 18:00N 40°41' W 074°02'3 6.6
2017-Dec-12 17:30N 40°45' W 074°01'3 6.8
2017-Dec-12 17:00N 40°48' W 073°59'4 7.1
2017-Dec-12 16:29N 40°51' W 073°57'4 7.2
2017-Dec-12 16:00N 40°54' W 073°55'  
2017-Dec-09 05:36N 40°57' W 073°54'1 5.7
2017-Dec-09 05:22N 40°56' W 073°55'2 5.3
2017-Dec-09 04:59N 40°54' W 073°56'2 5.1
2017-Dec-09 04:30N 40°52' W 073°57'3 5.1
2017-Dec-09 04:00N 40°49' W 073°58'2 4.8
2017-Dec-09 03:30N 40°47' W 073°60'2 4.3
2017-Dec-09 03:00N 40°45' W 074°01'2 3.7
2017-Dec-09 02:30N 40°43' W 074°01'2 3.2
2017-Dec-09 02:00N 40°42' W 074°02'2 3.1
2017-Dec-09 01:30N 40°40' W 074°03'1 1.1
2017-Dec-09 01:00N 40°40' W 074°03'0 0.0
2017-Dec-09 00:30N 40°40' W 074°03'0 0.0
2017-Dec-09 00:00N 40°40' W 074°03'0 0.0
2017-Dec-08 23:30N 40°40' W 074°03'0 0.0
2017-Dec-08 23:00N 40°40' W 074°03'0 0.0
2017-Dec-08 22:30N 40°40' W 074°03'0 0.2
2017-Dec-08 22:00N 40°40' W 074°03'2 4.4
2017-Dec-08 21:30N 40°42' W 074°01'3 6.6
2017-Dec-08 21:00N 40°44' W 073°58'1 2.1
2017-Dec-08 20:30N 40°44' W 073°57'0 0.1
2017-Dec-08 20:00N 40°44' W 073°57'0 0.0
2017-Dec-08 19:30N 40°44' W 073°57'0 0.0
2017-Dec-08 19:00N 40°44' W 073°57'0 0.0
2017-Dec-08 18:30N 40°44' W 073°57'0 0.0
2017-Dec-08 17:59N 40°44' W 073°57'0 0.1
2017-Dec-08 17:30N 40°44' W 073°57'2 5.0
2017-Dec-08 17:00N 40°42' W 073°59'3 5.5
2017-Dec-08 16:30N 40°40' W 074°01'0 0.3
2017-Dec-08 16:00N 40°40' W 074°01'0 0.0
2017-Dec-08 15:30N 40°40' W 074°01'0 0.0
2017-Dec-08 15:00N 40°40' W 074°01'0 0.0
2017-Dec-08 14:31N 40°40' W 074°01'0 0.0
2017-Dec-08 14:00N 40°40' W 074°01'0 0.0
2017-Dec-08 13:31N 40°40' W 074°01'4 0.4
2017-Dec-08 03:25N 40°39' W 074°05'2 5.6
2017-Dec-08 03:00N 40°39' W 074°08'3 5.8
2017-Dec-08 02:30N 40°38' W 074°12'0 0.5
2017-Dec-08 02:00N 40°38' W 074°12'1 2.6
2017-Dec-08 01:30N 40°39' W 074°11'4 8.1
2017-Dec-08 00:59N 40°39' W 074°05'2 4.2
2017-Dec-08 00:30N 40°40' W 074°03'3 5.9
2017-Dec-08 00:00N 40°42' W 074°00'3 6.2
2017-Dec-07 23:29N 40°44' W 073°57'1 1.4
2017-Dec-07 23:00N 40°44' W 073°57'0 0.2
2017-Dec-07 22:30N 40°44' W 073°57'1 1.9
2017-Dec-07 22:00N 40°44' W 073°58'2 4.1
2017-Dec-07 21:30N 40°42' W 073°60'3 5.2
2017-Dec-07 21:00N 40°40' W 074°01'0 0.8
2017-Dec-07 20:31N 40°40' W 074°01'0 0.5
2017-Dec-07 20:00N 40°40' W 074°01'0 0.0
2017-Dec-07 19:30N 40°40' W 074°01'0 0.0
2017-Dec-07 19:01N 40°40' W 074°01'0 0.0
2017-Dec-07 18:30N 40°40' W 074°01'2 3.9
2017-Dec-07 18:00N 40°40' W 074°03'3 5.2
2017-Dec-07 17:29N 40°39' W 074°07'0 0.0
2017-Dec-07 17:00N 40°39' W 074°07'1 1.0
2017-Dec-07 16:30N 40°39' W 074°06'3 7.1
2017-Dec-07 16:01N 40°41' W 074°02'3 6.2
2017-Dec-07 15:31N 40°42' W 073°59'2 4.6
2017-Dec-07 15:00N 40°44' W 073°57'0 0.0
2017-Dec-07 14:29N 40°44' W 073°57'0 0.0
2017-Dec-07 14:00N 40°44' W 073°57'0 0.0
2017-Dec-07 13:30N 40°44' W 073°57'0 0.0
2017-Dec-07 13:00N 40°44' W 073°57'0 0.0
2017-Dec-07 12:30N 40°44' W 073°57'0 0.0
2017-Dec-07 12:00N 40°44' W 073°57'1 1.3
2017-Dec-07 11:30N 40°44' W 073°58'3 6.7
2017-Dec-07 11:01N 40°42' W 074°00'2 3.8
2017-Dec-07 10:31N 40°40' W 074°00'0 0.0
2017-Dec-07 10:01N 40°40' W 074°00'0 0.0
2017-Dec-07 09:30N 40°40' W 074°00'1 1.5
2017-Dec-07 09:00N 40°40' W 074°01'3 6.0
2017-Dec-07 08:30N 40°43' W 074°01'4 7.0
2017-Dec-07 08:00N 40°46' W 074°00'3 6.5
2017-Dec-07 07:30N 40°49' W 073°58'3 5.6
2017-Dec-07 07:00N 40°52' W 073°57'3 5.1
2017-Dec-07 06:30N 40°54' W 073°55'  

Dump ship's entire track history